createdAt,value
2022-07-26T00:01:03.135Z,94338.50
2022-07-26T00:03:31.166Z,94332.97
2022-07-26T00:05:59.655Z,94331.66
2022-07-26T00:08:27.720Z,94333.25
2022-07-26T00:10:57.021Z,94331.94
2022-07-26T00:13:24.992Z,94335.88
2022-07-26T00:15:58.594Z,94331.34
2022-07-26T00:18:27.130Z,94337.19
2022-07-26T00:20:55.498Z,94342.53
2022-07-26T00:23:23.923Z,94330.88
2022-07-26T00:25:52.030Z,94328.19
2022-07-26T00:28:21.341Z,94327.91
2022-07-26T00:30:49.442Z,94331.06
2022-07-26T00:33:17.437Z,94325.66
2022-07-26T00:35:45.685Z,94321.72
2022-07-26T00:38:13.744Z,94324.97
2022-07-26T00:40:41.765Z,94316.22
2022-07-26T00:43:09.833Z,94326.53
2022-07-26T00:45:39.300Z,94324.72
2022-07-26T00:48:10.035Z,94326.72
2022-07-26T00:50:38.118Z,94320.03
2022-07-26T00:53:06.515Z,94321.31
2022-07-26T00:55:34.566Z,94321.03
2022-07-26T00:58:02.903Z,94322.63
2022-07-26T01:00:31.295Z,94328.91
2022-07-26T01:03:01.560Z,94318.06
2022-07-26T01:05:30.303Z,94321.75
2022-07-26T01:07:59.289Z,94319.69
2022-07-26T01:10:27.300Z,94321.03
2022-07-26T01:12:55.309Z,94323.38
2022-07-26T01:15:23.489Z,94310.66
2022-07-26T01:17:51.563Z,94325.66
2022-07-26T01:20:21.201Z,94315.84
2022-07-26T01:22:50.623Z,94316.16
2022-07-26T01:25:29.630Z,94319.72
2022-07-26T01:27:57.889Z,94309.44
2022-07-26T01:30:25.883Z,94309.69
2022-07-26T01:32:53.882Z,94317.50
2022-07-26T01:35:22.337Z,94309.88
2022-07-26T01:37:51.720Z,94308.75
2022-07-26T01:40:19.807Z,94303.72
2022-07-26T01:42:47.902Z,94302.44
2022-07-26T01:45:15.846Z,94300.03
2022-07-26T01:47:44.646Z,94299.00
2022-07-26T01:50:12.756Z,94307.91
2022-07-26T01:52:40.751Z,94309.13
2022-07-26T01:55:11.207Z,94312.41
2022-07-26T01:57:39.236Z,94310.81
2022-07-26T02:00:08.977Z,94316.03
2022-07-26T02:02:37.342Z,94309.41
2022-07-26T02:05:06.151Z,94311.72
2022-07-26T02:07:38.744Z,94314.84
2022-07-26T02:10:08.171Z,94321.13
2022-07-26T02:12:37.863Z,94320.25
2022-07-26T02:15:07.379Z,94315.94
2022-07-26T02:17:35.422Z,94315.47
2022-07-26T02:20:03.727Z,94326.75
2022-07-26T02:22:31.776Z,94325.72
2022-07-26T02:25:04.791Z,94316.75
2022-07-26T02:27:33.463Z,94325.06
2022-07-26T02:30:03.114Z,94323.97
2022-07-26T02:32:31.114Z,94321.91
2022-07-26T02:34:59.388Z,94316.41
2022-07-26T02:37:27.460Z,94316.50
2022-07-26T02:39:55.432Z,94323.19
2022-07-26T02:42:23.420Z,94321.41
2022-07-26T02:44:51.433Z,94313.66
2022-07-26T02:47:20.883Z,94323.28
2022-07-26T02:49:48.879Z,94326.19
2022-07-26T02:52:17.182Z,94323.53
2022-07-26T02:54:45.484Z,94317.31
2022-07-26T02:57:14.666Z,94329.31
2022-07-26T02:59:42.775Z,94321.00
2022-07-26T03:02:10.747Z,94319.06
2022-07-26T03:04:40.048Z,94325.69
2022-07-26T03:07:08.017Z,94322.25
2022-07-26T03:09:36.002Z,94324.59
2022-07-26T03:12:04.402Z,94314.38
2022-07-26T03:14:32.369Z,94321.47
2022-07-26T03:17:00.380Z,94329.06
2022-07-26T03:19:28.359Z,94336.91
2022-07-26T03:21:57.807Z,94333.06
2022-07-26T03:24:25.837Z,94330.75
2022-07-26T03:26:53.756Z,94327.47
2022-07-26T03:29:21.731Z,94348.03
2022-07-26T03:31:49.715Z,94339.88
2022-07-26T03:34:17.717Z,94339.97
2022-07-26T03:36:45.727Z,94335.47
2022-07-26T03:39:15.170Z,94335.00
2022-07-26T03:41:43.155Z,94332.19
2022-07-26T03:44:11.528Z,94328.69
2022-07-26T03:46:39.806Z,94326.81
2022-07-26T03:49:10.888Z,94333.19
2022-07-26T03:51:41.225Z,94330.75
2022-07-26T03:54:09.781Z,94327.72
2022-07-26T03:56:38.618Z,94328.03
2022-07-26T03:59:10.062Z,94321.78
2022-07-26T04:01:41.922Z,94321.63
2022-07-26T04:04:10.811Z,94322.19
2022-07-26T04:06:40.159Z,94325.16
2022-07-26T04:09:08.973Z,94323.66
2022-07-26T04:11:37.089Z,94327.66
2022-07-26T04:14:06.775Z,94328.69
2022-07-26T04:16:36.948Z,94336.13
2022-07-26T04:19:07.138Z,94334.91
2022-07-26T04:21:35.425Z,94322.75
2022-07-26T04:24:03.543Z,94318.81
2022-07-26T04:26:31.777Z,94324.66
2022-07-26T04:28:59.980Z,94325.34
2022-07-26T04:31:29.438Z,94324.75
2022-07-26T04:34:05.110Z,94321.19
2022-07-26T04:36:33.437Z,94325.72
2022-07-26T04:39:01.524Z,94318.94
2022-07-26T04:41:29.511Z,94317.91
2022-07-26T04:43:58.145Z,94323.31
2022-07-26T04:46:26.300Z,94308.91
2022-07-26T04:48:55.787Z,94322.47
2022-07-26T04:51:23.807Z,94322.50
2022-07-26T04:53:52.387Z,94328.50
2022-07-26T04:56:20.406Z,94326.91
2022-07-26T04:58:48.484Z,94330.00
2022-07-26T05:01:16.692Z,94331.66
2022-07-26T05:03:44.647Z,94324.75
2022-07-26T05:06:14.018Z,94322.94
2022-07-26T05:08:43.328Z,94329.63
2022-07-26T05:11:11.425Z,94322.78
2022-07-26T05:13:39.445Z,94317.03
2022-07-26T05:16:11.908Z,94315.81
2022-07-26T05:18:46.060Z,94310.56
2022-07-26T05:21:19.748Z,94315.63
2022-07-26T05:23:47.913Z,94312.50
2022-07-26T05:26:16.101Z,94312.94
2022-07-26T05:28:44.134Z,94317.72
2022-07-26T05:31:12.372Z,94309.84
2022-07-26T05:33:43.817Z,94305.69
2022-07-26T05:36:11.869Z,94318.69
2022-07-26T05:38:41.768Z,94317.44
2022-07-26T05:41:10.137Z,94318.03
2022-07-26T05:43:41.160Z,94315.69
2022-07-26T05:46:11.164Z,94311.78
2022-07-26T05:48:40.267Z,94305.66
2022-07-26T05:51:08.550Z,94297.22
2022-07-26T05:53:36.799Z,94303.13
2022-07-26T05:56:22.979Z,94312.94
2022-07-26T05:58:51.054Z,94308.16
2022-07-26T06:01:19.447Z,94306.84
2022-07-26T06:03:47.707Z,94302.34
2022-07-26T06:06:15.888Z,94306.63
2022-07-26T06:08:44.227Z,94300.31
2022-07-26T06:11:12.246Z,94296.66
2022-07-26T06:13:41.821Z,94287.38
2022-07-26T06:16:09.955Z,94295.34
2022-07-26T06:18:38.013Z,94297.19
2022-07-26T06:21:06.291Z,94289.19
2022-07-26T06:23:35.219Z,94284.72
2022-07-26T06:26:05.318Z,94283.97
2022-07-26T06:28:34.036Z,94295.38
2022-07-26T06:31:04.039Z,94291.38
2022-07-26T06:33:32.150Z,94293.81
2022-07-26T06:36:00.701Z,94287.16
2022-07-26T06:38:29.278Z,94295.19
2022-07-26T06:40:57.399Z,94297.84
2022-07-26T06:43:25.528Z,94291.72
2022-07-26T06:45:53.629Z,94287.22
2022-07-26T06:48:23.049Z,94291.78
2022-07-26T06:50:51.341Z,94291.00
2022-07-26T06:53:19.935Z,94290.22
2022-07-26T06:55:48.023Z,94291.00
2022-07-26T06:58:16.186Z,94282.50
2022-07-26T07:00:44.314Z,94282.78
2022-07-26T07:03:12.424Z,94282.22
2022-07-26T07:05:45.394Z,94291.53
2022-07-26T07:08:17.416Z,94295.22
2022-07-26T07:10:46.356Z,94294.16
2022-07-26T07:13:14.466Z,94293.94
2022-07-26T07:15:42.561Z,94291.50
2022-07-26T07:18:10.750Z,94292.03
2022-07-26T07:20:39.510Z,94292.31
2022-07-26T07:23:09.383Z,94294.94
2022-07-26T07:25:37.528Z,94292.50
2022-07-26T07:28:05.992Z,94297.53
2022-07-26T07:30:34.201Z,94293.00
2022-07-26T07:33:03.501Z,94294.50
2022-07-26T07:35:32.867Z,94301.41
2022-07-26T07:38:02.015Z,94295.88
2022-07-26T07:40:31.832Z,94297.19
2022-07-26T07:43:00.020Z,94294.09
2022-07-26T07:45:28.273Z,94291.34
2022-07-26T07:47:56.386Z,94291.91
2022-07-26T07:50:27.126Z,94288.59
2022-07-26T07:52:59.259Z,94282.59
2022-07-26T07:55:46.179Z,94278.81
2022-07-26T07:58:17.379Z,94283.22
2022-07-26T08:00:47.200Z,94275.34
2022-07-26T08:03:18.038Z,94273.66
2022-07-26T08:05:49.710Z,94276.56
2022-07-26T08:08:19.115Z,94277.41
2022-07-26T08:10:52.189Z,94268.06
2022-07-26T08:13:23.013Z,94271.09
2022-07-26T08:15:52.005Z,94260.63
2022-07-26T08:18:22.568Z,94260.78
2022-07-26T08:20:52.066Z,94255.50
2022-07-26T08:23:20.650Z,94251.47
2022-07-26T08:25:56.260Z,94252.84
2022-07-26T08:31:16.378Z,94254.91
2022-07-26T08:33:46.457Z,94255.38
2022-07-26T08:36:15.475Z,94247.19
2022-07-26T08:38:43.713Z,94250.25
2022-07-26T08:41:12.903Z,94247.38
2022-07-26T08:43:50.994Z,94243.50
2022-07-26T08:46:25.212Z,94240.69
2022-07-26T08:48:54.819Z,94236.50
2022-07-26T08:51:24.600Z,94242.53
2022-07-26T08:54:01.910Z,94240.16
2022-07-26T08:56:32.808Z,94240.41
2022-07-26T08:59:04.857Z,94239.31
2022-07-26T09:01:33.131Z,94239.44
2022-07-26T09:04:31.056Z,94240.16
2022-07-26T09:07:02.168Z,94239.13
2022-07-26T09:09:30.383Z,94239.91
2022-07-26T09:11:59.653Z,94245.28
2022-07-26T09:14:41.931Z,94231.72
2022-07-26T09:17:09.932Z,94236.91
2022-07-26T09:19:38.020Z,94238.31
2022-07-26T09:22:11.766Z,94237.53
2022-07-26T09:24:42.604Z,94227.53
2022-07-26T09:27:12.821Z,94236.44
2022-07-26T09:29:47.167Z,94230.91
2022-07-26T09:32:18.438Z,94231.59
2022-07-26T09:34:53.055Z,94226.13
2022-07-26T09:37:35.476Z,94218.41
2022-07-26T09:40:06.088Z,94220.28
2022-07-26T09:42:34.124Z,94220.78
2022-07-26T09:45:04.368Z,94220.34
2022-07-26T09:47:39.937Z,94217.47
2022-07-26T09:50:16.105Z,94218.72
2022-07-26T09:52:59.670Z,94205.38
2022-07-26T09:55:32.924Z,94209.44
2022-07-26T09:58:07.650Z,94198.09
2022-07-26T10:00:37.230Z,94207.41
2022-07-26T10:03:05.488Z,94204.72
2022-07-26T10:05:34.282Z,94202.56
2022-07-26T10:08:02.736Z,94205.75
2022-07-26T10:10:37.252Z,94208.13
2022-07-26T10:13:06.842Z,94197.13
2022-07-26T10:15:38.375Z,94197.31
2022-07-26T10:18:08.415Z,94195.06
2022-07-26T10:20:42.471Z,94193.50
2022-07-26T10:23:35.640Z,94194.19
2022-07-26T10:26:04.920Z,94195.00
2022-07-26T10:28:36.620Z,94183.63
2022-07-26T10:31:30.590Z,94183.16
2022-07-26T10:34:01.031Z,94180.94
2022-07-26T10:36:35.887Z,94182.59
2022-07-26T10:39:10.602Z,94179.75
2022-07-26T10:41:44.806Z,94177.75
2022-07-26T10:44:26.925Z,94179.16
2022-07-26T10:47:20.134Z,94172.09
2022-07-26T10:49:56.945Z,94158.50
2022-07-26T10:52:28.008Z,94161.31
2022-07-26T10:55:10.225Z,94152.31
2022-07-26T10:57:40.538Z,94154.47
2022-07-26T11:00:11.838Z,94155.16
2022-07-26T11:02:43.894Z,94148.75
2022-07-26T11:05:14.566Z,94148.75
2022-07-26T11:08:01.725Z,94147.63
2022-07-26T11:10:31.947Z,94144.72
2022-07-26T11:13:08.598Z,94136.22
2022-07-26T11:15:37.194Z,94127.94
2022-07-26T11:18:30.740Z,94129.13
2022-07-26T11:21:00.381Z,94124.75
2022-07-26T11:23:31.313Z,94126.81
2022-07-26T11:26:15.088Z,94131.19
2022-07-26T11:28:52.992Z,94125.06
2022-07-26T11:31:50.923Z,94122.84
2022-07-26T11:34:20.475Z,94115.34
2022-07-26T11:36:49.057Z,94113.22
2022-07-26T11:39:24.543Z,94105.97
2022-07-26T11:41:57.659Z,94095.81
2022-07-26T11:44:26.438Z,94097.19
2022-07-26T11:46:54.968Z,94101.09
2022-07-26T11:49:51.828Z,94098.91
2022-07-26T11:52:15.620Z,94095.31
2022-07-26T11:54:54.564Z,94096.03
2022-07-26T11:57:25.396Z,94090.78
2022-07-26T11:59:53.517Z,94084.84
2022-07-26T12:02:22.653Z,94089.06
2022-07-26T12:05:16.829Z,94088.50
2022-07-26T12:07:56.370Z,94083.88
2022-07-26T12:10:25.062Z,94079.66
2022-07-26T12:13:09.089Z,94082.03
2022-07-26T12:15:48.269Z,94084.94
2022-07-26T12:18:25.227Z,94077.75
2022-07-26T12:21:05.503Z,94078.69
2022-07-26T12:23:45.174Z,94067.25
2022-07-26T12:26:23.490Z,94061.75
2022-07-26T12:28:51.727Z,94067.31
2022-07-26T12:31:29.224Z,94064.50
2022-07-26T12:33:58.050Z,94070.75
2022-07-26T12:36:30.009Z,94065.56
2022-07-26T12:38:59.692Z,94056.69
2022-07-26T12:41:35.866Z,94059.41
2022-07-26T12:44:05.047Z,94054.94
2022-07-26T12:46:34.529Z,94060.19
2022-07-26T12:49:02.993Z,94052.31
2022-07-26T12:51:32.622Z,94058.44
2022-07-26T12:54:00.844Z,94054.94
2022-07-26T12:56:28.960Z,94052.97
2022-07-26T12:59:01.262Z,94051.50
2022-07-26T13:01:30.450Z,94050.09
2022-07-26T13:03:58.762Z,94050.63
2022-07-26T13:06:27.294Z,94041.72
2022-07-26T13:08:57.136Z,94047.66
2022-07-26T13:11:25.291Z,94042.25
2022-07-26T13:13:53.405Z,94033.91
2022-07-26T13:16:21.506Z,94032.72
2022-07-26T13:18:49.679Z,94027.31
2022-07-26T13:21:18.110Z,94034.38
2022-07-26T13:23:46.135Z,94026.19
2022-07-26T13:26:15.641Z,94028.63
2022-07-26T13:28:44.425Z,94034.28
2022-07-26T13:31:17.701Z,94027.75
2022-07-26T13:33:45.873Z,94037.91
2022-07-26T13:36:14.077Z,94033.03
2022-07-26T13:38:43.048Z,94032.63
2022-07-26T13:41:11.216Z,94035.16
2022-07-26T13:43:40.748Z,94030.63
2022-07-26T13:46:08.890Z,94033.41
2022-07-26T13:48:37.061Z,94032.66
2022-07-26T13:51:05.669Z,94027.03
2022-07-26T13:53:34.077Z,94024.69
2022-07-26T13:56:02.493Z,94022.78
2022-07-26T13:58:31.126Z,94029.41
2022-07-26T14:01:02.426Z,94028.00
2022-07-26T14:03:35.251Z,94020.94
2022-07-26T14:06:03.869Z,94019.78
2022-07-26T14:08:31.880Z,94015.84
2022-07-26T14:10:59.868Z,94013.81
2022-07-26T14:13:27.879Z,94023.03
2022-07-26T14:15:56.206Z,94011.94
2022-07-26T14:18:25.557Z,94013.59
2022-07-26T14:20:54.190Z,94015.34
2022-07-26T14:23:22.184Z,94011.06
2022-07-26T14:25:50.724Z,93999.41
2022-07-26T14:28:18.831Z,94003.59
2022-07-26T14:30:47.025Z,94004.38
2022-07-26T14:33:15.245Z,94001.22
2022-07-26T14:35:45.026Z,93998.50
2022-07-26T14:38:15.703Z,93998.66
2022-07-26T14:40:47.582Z,93996.91
2022-07-26T14:43:15.670Z,94000.34
2022-07-26T14:45:46.616Z,93997.75
2022-07-26T14:48:31.541Z,93989.34
2022-07-26T14:51:09.473Z,93992.69
2022-07-26T14:53:38.078Z,93982.72
2022-07-26T14:56:06.530Z,93985.75
2022-07-26T14:58:34.485Z,93989.66
2022-07-26T15:01:02.732Z,93989.72
2022-07-26T15:03:34.393Z,93975.25
2022-07-26T15:06:02.535Z,93980.09
2022-07-26T15:08:32.123Z,93973.19
2022-07-26T15:11:00.201Z,93979.50
2022-07-26T15:13:28.332Z,93969.00
2022-07-26T15:15:56.513Z,93965.91
2022-07-26T15:18:24.558Z,93968.78
2022-07-26T15:20:52.661Z,93965.03
2022-07-26T15:23:20.885Z,93971.78
2022-07-26T15:25:50.349Z,93968.13
2022-07-26T15:28:18.354Z,93977.31
2022-07-26T15:30:46.413Z,93965.03
2022-07-26T15:33:14.927Z,93970.19
2022-07-26T15:35:43.843Z,93959.91
2022-07-26T15:38:11.918Z,93965.03
2022-07-26T15:40:40.400Z,93960.75
2022-07-26T15:43:10.088Z,93967.03
2022-07-26T15:45:41.343Z,93956.66
2022-07-26T15:48:17.026Z,93966.91
2022-07-26T15:50:46.532Z,93962.53
2022-07-26T15:53:17.269Z,93965.31
2022-07-26T15:55:45.263Z,93951.75
2022-07-26T15:58:14.797Z,93954.91
2022-07-26T16:00:43.805Z,93960.00
2022-07-26T16:03:12.997Z,93957.31
2022-07-26T16:05:41.170Z,93958.34
2022-07-26T16:08:09.216Z,93946.47
2022-07-26T16:10:38.177Z,93954.91
2022-07-26T16:13:06.440Z,93956.22
2022-07-26T16:15:35.895Z,93951.81
2022-07-26T16:18:06.468Z,93951.63
2022-07-26T16:20:34.857Z,93960.09
2022-07-26T16:23:03.137Z,93959.47
2022-07-26T16:25:31.130Z,93964.19
2022-07-26T16:27:59.474Z,93965.06
2022-07-26T16:30:28.083Z,93966.00
2022-07-26T16:32:57.497Z,93974.16
2022-07-26T16:35:25.676Z,93969.78
2022-07-26T16:37:53.647Z,93969.41
2022-07-26T16:40:24.677Z,93962.78
2022-07-26T16:42:52.737Z,93966.81
2022-07-26T16:45:21.474Z,93967.22
2022-07-26T16:47:49.807Z,93962.50
2022-07-26T16:50:25.136Z,93967.81
2022-07-26T16:52:55.537Z,93969.06
2022-07-26T16:55:23.566Z,93977.78
2022-07-26T16:57:51.608Z,93974.78
2022-07-26T17:00:22.144Z,93981.47
2022-07-26T17:02:50.220Z,93972.81
2022-07-26T17:05:19.634Z,93978.22
2022-07-26T17:07:47.676Z,93973.72
2022-07-26T17:10:15.711Z,93974.44
2022-07-26T17:12:43.892Z,93977.78
2022-07-26T17:15:12.621Z,93978.06
2022-07-26T17:17:43.750Z,93973.84
2022-07-26T17:20:15.337Z,93984.31
2022-07-26T17:22:46.206Z,93979.28
2022-07-26T17:25:14.696Z,93975.41
2022-07-26T17:27:42.774Z,93976.38
2022-07-26T17:30:12.222Z,93969.81
2022-07-26T17:32:40.340Z,93971.41
2022-07-26T17:35:09.949Z,93976.16
2022-07-26T17:37:37.960Z,93979.34
2022-07-26T17:40:11.340Z,93976.63
2022-07-26T17:42:40.000Z,93977.63
2022-07-26T17:45:09.040Z,93975.91
2022-07-26T17:47:37.103Z,93976.47
2022-07-26T17:50:35.229Z,93979.16
2022-07-26T17:52:55.848Z,93977.50
2022-07-26T17:55:25.410Z,93981.09
2022-07-26T17:57:53.718Z,93980.47
2022-07-26T18:00:26.149Z,93977.41
2022-07-26T18:02:57.554Z,93976.81
2022-07-26T18:05:33.084Z,93981.72
2022-07-26T18:08:03.369Z,93986.50
2022-07-26T18:10:33.154Z,93993.19
2022-07-26T18:13:01.215Z,93999.47
2022-07-26T18:15:29.324Z,94008.25
2022-07-26T18:17:57.365Z,94003.38
2022-07-26T18:20:25.464Z,94006.81
2022-07-26T18:22:54.689Z,94014.75
2022-07-26T18:25:22.763Z,94012.06
2022-07-26T18:27:53.896Z,94015.06
2022-07-26T18:30:22.129Z,94011.09
2022-07-26T18:32:50.244Z,94023.88
2022-07-26T18:35:18.361Z,94024.81
2022-07-26T18:37:46.755Z,94026.25
2022-07-26T18:40:14.955Z,94027.66
2022-07-26T18:42:43.402Z,94033.03
2022-07-26T18:45:13.175Z,94035.09
2022-07-26T18:47:41.900Z,94029.09
2022-07-26T18:50:11.563Z,94033.34
2022-07-26T18:52:40.661Z,94036.97
2022-07-26T18:55:12.788Z,94039.38
2022-07-26T18:57:44.952Z,94042.00
2022-07-26T19:00:18.179Z,94044.31
2022-07-26T19:02:47.797Z,94041.09
2022-07-26T19:05:17.646Z,94046.25
2022-07-26T19:07:46.501Z,94047.00
2022-07-26T19:10:14.658Z,94043.38
2022-07-26T19:12:43.796Z,94047.41
2022-07-26T19:15:12.152Z,94050.03
2022-07-26T19:17:42.944Z,94053.59
2022-07-26T19:20:13.079Z,94048.84
2022-07-26T19:22:41.524Z,94046.84
2022-07-26T19:25:11.086Z,94052.31
2022-07-26T19:27:39.717Z,94050.84
2022-07-26T19:30:10.390Z,94041.25
2022-07-26T19:32:38.895Z,94044.44
2022-07-26T19:35:10.322Z,94042.84
2022-07-26T19:37:38.449Z,94036.59
2022-07-26T19:40:08.074Z,94039.25
2022-07-26T19:42:36.260Z,94038.69
2022-07-26T19:45:04.796Z,94040.34
2022-07-26T19:47:35.688Z,94037.91
2022-07-26T19:50:04.717Z,94041.66
2022-07-26T19:52:37.312Z,94044.44
2022-07-26T19:55:06.178Z,94038.66
2022-07-26T19:57:38.966Z,94039.06
2022-07-26T20:00:13.608Z,94043.00
2022-07-26T20:02:42.491Z,94037.53
2022-07-26T20:05:13.271Z,94032.59
2022-07-26T20:07:46.097Z,94036.44
2022-07-26T20:10:14.274Z,94041.09
2022-07-26T20:12:42.847Z,94043.59
2022-07-26T20:15:12.165Z,94039.81
2022-07-26T20:17:41.358Z,94040.72
2022-07-26T20:20:10.644Z,94040.22
2022-07-26T20:22:38.649Z,94046.94
2022-07-26T20:25:09.938Z,94042.56
2022-07-26T20:27:37.987Z,94049.19
2022-07-26T20:30:07.346Z,94048.69
2022-07-26T20:32:35.437Z,94031.38
2022-07-26T20:35:03.576Z,94041.38
2022-07-26T20:37:31.716Z,94040.28
2022-07-26T20:40:02.190Z,94044.84
2022-07-26T20:42:31.620Z,94053.09
2022-07-26T20:45:01.069Z,94053.63
2022-07-26T20:47:29.302Z,94044.59
2022-07-26T20:50:02.997Z,94055.59
2022-07-26T20:52:31.501Z,94058.81
2022-07-26T20:55:00.381Z,94057.84
2022-07-26T20:57:28.408Z,94073.09
2022-07-26T20:59:57.788Z,94065.34
2022-07-26T21:02:26.086Z,94065.56
2022-07-26T21:04:54.270Z,94064.88
2022-07-26T21:07:22.294Z,94073.06
2022-07-26T21:09:50.451Z,94069.00
2022-07-26T21:12:18.494Z,94081.13
2022-07-26T21:14:46.473Z,94086.53
2022-07-26T21:17:18.774Z,94080.19
2022-07-26T21:19:46.783Z,94074.06
2022-07-26T21:22:14.790Z,94081.47
2022-07-26T21:24:42.850Z,94079.66
2022-07-26T21:27:10.934Z,94082.06
2022-07-26T21:29:40.256Z,94090.06
2022-07-26T21:32:08.388Z,94086.34
2022-07-26T21:34:37.927Z,94086.09
2022-07-26T21:37:06.306Z,94082.38
2022-07-26T21:39:34.335Z,94085.63
2022-07-26T21:42:02.375Z,94072.63
2022-07-26T21:44:30.353Z,94081.09
2022-07-26T21:46:58.611Z,94089.66
2022-07-26T21:49:26.626Z,94085.75
2022-07-26T21:51:55.992Z,94080.31
2022-07-26T21:54:24.114Z,94083.28
2022-07-26T21:56:52.993Z,94085.50
2022-07-26T21:59:21.339Z,94082.38
2022-07-26T22:01:49.682Z,94084.53
2022-07-26T22:04:18.290Z,94081.41
2022-07-26T22:06:46.403Z,94081.38
2022-07-26T22:09:15.886Z,94080.34
2022-07-26T22:11:43.881Z,94082.44
2022-07-26T22:14:11.829Z,94084.13
2022-07-26T22:16:39.894Z,94084.72
2022-07-26T22:19:08.783Z,94085.31
2022-07-26T22:21:37.060Z,94085.91
2022-07-26T22:24:05.689Z,94090.75
2022-07-26T22:26:36.148Z,94089.69
2022-07-26T22:29:04.128Z,94088.91
2022-07-26T22:31:32.477Z,94083.09
2022-07-26T22:34:00.472Z,94084.19
2022-07-26T22:36:28.600Z,94084.97
2022-07-26T22:38:56.643Z,94083.94
2022-07-26T22:41:24.671Z,94084.72
2022-07-26T22:43:54.165Z,94074.63
2022-07-26T22:46:29.159Z,94089.22
2022-07-26T22:48:57.605Z,94082.28
2022-07-26T22:51:25.665Z,94085.47
2022-07-26T22:53:53.612Z,94088.09
2022-07-26T22:56:22.215Z,94089.16
2022-07-26T22:58:50.218Z,94094.19
2022-07-26T23:01:19.727Z,94102.72
2022-07-26T23:03:49.677Z,94096.88
2022-07-26T23:06:31.797Z,94103.56
2022-07-26T23:09:00.548Z,94097.69
2022-07-26T23:11:28.676Z,94099.53
2022-07-26T23:13:59.782Z,94092.69
2022-07-26T23:16:29.295Z,94096.50
2022-07-26T23:18:57.391Z,94101.56
2022-07-26T23:21:25.436Z,94106.47
2022-07-26T23:23:53.568Z,94111.81
2022-07-26T23:26:24.131Z,94105.75
2022-07-26T23:28:55.603Z,94101.31
2022-07-26T23:31:23.677Z,94114.09
2022-07-26T23:33:54.640Z,94114.34
2022-07-26T23:36:27.154Z,94112.81
2022-07-26T23:38:55.380Z,94120.03
2022-07-26T23:41:23.446Z,94116.84
2022-07-26T23:43:52.271Z,94106.22
2022-07-26T23:46:20.433Z,94119.22
2022-07-26T23:48:48.552Z,94108.88
2022-07-26T23:51:19.459Z,94107.84
2022-07-26T23:53:47.925Z,94107.03
2022-07-26T23:56:16.093Z,94107.84
2022-07-26T23:58:44.503Z,94112.88
